sensor_id;sensor_type;location;lat;lon;timestamp;P1;durP1;ratioP1;P2;durP2;ratioP2
26211;SDS011;13951;49.516;6.094;2023-05-14T00:02:13;3.43;;;2.60;;
26211;SDS011;13951;49.516;6.094;2023-05-14T00:04:46;3.53;;;2.70;;
26211;SDS011;13951;49.516;6.094;2023-05-14T00:07:19;3.60;;;2.70;;
26211;SDS011;13951;49.516;6.094;2023-05-14T00:09:52;3.07;;;2.57;;
26211;SDS011;13951;49.516;6.094;2023-05-14T00:12:25;4.32;;;3.10;;
26211;SDS011;13951;49.516;6.094;2023-05-14T00:14:58;4.10;;;2.80;;
26211;SDS011;13951;49.516;6.094;2023-05-14T00:17:32;2.70;;;2.50;;
26211;SDS011;13951;49.516;6.094;2023-05-14T00:20:05;3.03;;;2.53;;
26211;SDS011;13951;49.516;6.094;2023-05-14T00:22:39;3.73;;;2.80;;
26211;SDS011;13951;49.516;6.094;2023-05-14T00:25:12;3.33;;;2.63;;
26211;SDS011;13951;49.516;6.094;2023-05-14T00:27:45;2.80;;;2.60;;
26211;SDS011;13951;49.516;6.094;2023-05-14T00:30:18;3.07;;;2.70;;
26211;SDS011;13951;49.516;6.094;2023-05-14T00:32:52;4.83;;;3.10;;
26211;SDS011;13951;49.516;6.094;2023-05-14T00:35:25;3.97;;;2.90;;
26211;SDS011;13951;49.516;6.094;2023-05-14T00:37:58;2.90;;;2.50;;
26211;SDS011;13951;49.516;6.094;2023-05-14T00:40:32;4.80;;;2.70;;
26211;SDS011;13951;49.516;6.094;2023-05-14T00:43:05;4.50;;;2.50;;
26211;SDS011;13951;49.516;6.094;2023-05-14T00:45:38;3.83;;;2.57;;
26211;SDS011;13951;49.516;6.094;2023-05-14T00:48:11;3.60;;;3.00;;
26211;SDS011;13951;49.516;6.094;2023-05-14T00:50:45;4.80;;;2.70;;
26211;SDS011;13951;49.516;6.094;2023-05-14T00:53:18;3.73;;;2.40;;
26211;SDS011;13951;49.516;6.094;2023-05-14T00:55:52;3.93;;;2.90;;
26211;SDS011;13951;49.516;6.094;2023-05-14T00:58:26;4.10;;;2.72;;
26211;SDS011;13951;49.516;6.094;2023-05-14T01:00:59;3.23;;;2.80;;
26211;SDS011;13951;49.516;6.094;2023-05-14T01:03:32;3.93;;;2.63;;
26211;SDS011;13951;49.516;6.094;2023-05-14T01:11:54;4.07;;;2.30;;
26211;SDS011;13951;49.516;6.094;2023-05-14T01:17:40;3.27;;;2.60;;
26211;SDS011;13951;49.516;6.094;2023-05-14T01:20:25;2.90;;;2.60;;
26211;SDS011;13951;49.516;6.094;2023-05-14T01:22:58;4.10;;;2.60;;
26211;SDS011;13951;49.516;6.094;2023-05-14T01:25:32;3.50;;;2.80;;
26211;SDS011;13951;49.516;6.094;2023-05-14T01:28:19;3.70;;;2.50;;
26211;SDS011;13951;49.516;6.094;2023-05-14T01:31:11;3.63;;;2.70;;
26211;SDS011;13951;49.516;6.094;2023-05-14T01:33:50;3.00;;;2.70;;
26211;SDS011;13951;49.516;6.094;2023-05-14T01:36:25;4.37;;;2.57;;
26211;SDS011;13951;49.516;6.094;2023-05-14T01:38:59;3.30;;;2.80;;
26211;SDS011;13951;49.516;6.094;2023-05-14T01:41:35;2.93;;;2.60;;
26211;SDS011;13951;49.516;6.094;2023-05-14T01:44:10;4.23;;;2.97;;
26211;SDS011;13951;49.516;6.094;2023-05-14T01:46:44;3.57;;;2.83;;
26211;SDS011;13951;49.516;6.094;2023-05-14T01:49:17;3.80;;;2.47;;
26211;SDS011;13951;49.516;6.094;2023-05-14T01:51:50;3.13;;;2.60;;
26211;SDS011;13951;49.516;6.094;2023-05-14T01:54:23;3.07;;;2.77;;
26211;SDS011;13951;49.516;6.094;2023-05-14T01:56:56;3.37;;;2.50;;
26211;SDS011;13951;49.516;6.094;2023-05-14T01:59:29;3.80;;;2.60;;
26211;SDS011;13951;49.516;6.094;2023-05-14T02:02:02;3.03;;;2.73;;
26211;SDS011;13951;49.516;6.094;2023-05-14T02:04:37;3.53;;;2.63;;
26211;SDS011;13951;49.516;6.094;2023-05-14T02:07:10;4.43;;;2.73;;
26211;SDS011;13951;49.516;6.094;2023-05-14T02:09:44;2.50;;;2.30;;
26211;SDS011;13951;49.516;6.094;2023-05-14T02:12:17;2.97;;;2.67;;
26211;SDS011;13951;49.516;6.094;2023-05-14T02:14:49;3.13;;;2.73;;
26211;SDS011;13951;49.516;6.094;2023-05-14T02:17:24;4.93;;;2.93;;
26211;SDS011;13951;49.516;6.094;2023-05-14T02:19:57;4.30;;;2.93;;
26211;SDS011;13951;49.516;6.094;2023-05-14T02:22:30;3.43;;;2.60;;
26211;SDS011;13951;49.516;6.094;2023-05-14T02:25:03;3.60;;;2.80;;
26211;SDS011;13951;49.516;6.094;2023-05-14T02:27:36;2.83;;;2.60;;
26211;SDS011;13951;49.516;6.094;2023-05-14T02:30:09;2.43;;;2.23;;
26211;SDS011;13951;49.516;6.094;2023-05-14T02:32:43;3.70;;;2.90;;
26211;SDS011;13951;49.516;6.094;2023-05-14T02:35:17;3.33;;;2.57;;
26211;SDS011;13951;49.516;6.094;2023-05-14T02:37:50;3.70;;;2.83;;
26211;SDS011;13951;49.516;6.094;2023-05-14T02:40:23;2.77;;;2.30;;
26211;SDS011;13951;49.516;6.094;2023-05-14T02:42:56;2.87;;;2.50;;
26211;SDS011;13951;49.516;6.094;2023-05-14T02:45:29;3.47;;;2.87;;
26211;SDS011;13951;49.516;6.094;2023-05-14T02:48:03;2.90;;;2.60;;
26211;SDS011;13951;49.516;6.094;2023-05-14T02:50:36;3.23;;;2.90;;
26211;SDS011;13951;49.516;6.094;2023-05-14T02:53:08;3.37;;;2.63;;
26211;SDS011;13951;49.516;6.094;2023-05-14T02:55:41;3.20;;;2.67;;
26211;SDS011;13951;49.516;6.094;2023-05-14T02:58:14;5.43;;;2.77;;
26211;SDS011;13951;49.516;6.094;2023-05-14T03:00:47;3.57;;;2.83;;
26211;SDS011;13951;49.516;6.094;2023-05-14T03:03:20;3.83;;;2.90;;
26211;SDS011;13951;49.516;6.094;2023-05-14T03:05:54;3.07;;;2.50;;
26211;SDS011;13951;49.516;6.094;2023-05-14T03:08:27;3.80;;;2.90;;
26211;SDS011;13951;49.516;6.094;2023-05-14T03:11:00;4.00;;;2.73;;
26211;SDS011;13951;49.516;6.094;2023-05-14T03:13:33;3.93;;;2.80;;
26211;SDS011;13951;49.516;6.094;2023-05-14T03:16:06;3.60;;;2.70;;
26211;SDS011;13951;49.516;6.094;2023-05-14T03:18:39;3.83;;;2.93;;
26211;SDS011;13951;49.516;6.094;2023-05-14T03:21:13;3.43;;;2.80;;
26211;SDS011;13951;49.516;6.094;2023-05-14T03:23:47;3.10;;;2.60;;
26211;SDS011;13951;49.516;6.094;2023-05-14T03:26:23;3.83;;;2.87;;
26211;SDS011;13951;49.516;6.094;2023-05-14T03:28:57;2.63;;;2.27;;
26211;SDS011;13951;49.516;6.094;2023-05-14T03:31:30;3.83;;;2.63;;
26211;SDS011;13951;49.516;6.094;2023-05-14T03:34:03;3.97;;;2.70;;
26211;SDS011;13951;49.516;6.094;2023-05-14T03:36:35;2.90;;;2.47;;
26211;SDS011;13951;49.516;6.094;2023-05-14T03:39:10;2.93;;;2.50;;
26211;SDS011;13951;49.516;6.094;2023-05-14T03:41:43;3.13;;;2.57;;
26211;SDS011;13951;49.516;6.094;2023-05-14T03:44:15;2.80;;;2.50;;
26211;SDS011;13951;49.516;6.094;2023-05-14T03:46:49;3.07;;;2.47;;
26211;SDS011;13951;49.516;6.094;2023-05-14T03:49:22;4.50;;;2.90;;
26211;SDS011;13951;49.516;6.094;2023-05-14T03:51:55;2.83;;;2.37;;
26211;SDS011;13951;49.516;6.094;2023-05-14T03:54:31;3.13;;;2.65;;
26211;SDS011;13951;49.516;6.094;2023-05-14T03:57:04;2.67;;;2.33;;
26211;SDS011;13951;49.516;6.094;2023-05-14T03:59:37;2.97;;;2.63;;
26211;SDS011;13951;49.516;6.094;2023-05-14T04:02:10;3.90;;;2.77;;
26211;SDS011;13951;49.516;6.094;2023-05-14T04:04:43;4.27;;;2.27;;
26211;SDS011;13951;49.516;6.094;2023-05-14T04:07:16;3.27;;;2.97;;
26211;SDS011;13951;49.516;6.094;2023-05-14T04:09:49;2.57;;;2.27;;
26211;SDS011;13951;49.516;6.094;2023-05-14T04:12:23;2.57;;;2.33;;
26211;SDS011;13951;49.516;6.094;2023-05-14T04:14:56;2.60;;;2.33;;
26211;SDS011;13951;49.516;6.094;2023-05-14T04:17:29;3.13;;;2.70;;
26211;SDS011;13951;49.516;6.094;2023-05-14T04:20:05;5.70;;;2.90;;
26211;SDS011;13951;49.516;6.094;2023-05-14T04:22:38;4.03;;;2.83;;
26211;SDS011;13951;49.516;6.094;2023-05-14T04:25:11;3.10;;;2.80;;
26211;SDS011;13951;49.516;6.094;2023-05-14T04:27:44;3.73;;;2.97;;
26211;SDS011;13951;49.516;6.094;2023-05-14T04:30:17;4.17;;;2.73;;
26211;SDS011;13951;49.516;6.094;2023-05-14T04:32:50;3.53;;;2.97;;
26211;SDS011;13951;49.516;6.094;2023-05-14T04:35:23;3.07;;;2.67;;
26211;SDS011;13951;49.516;6.094;2023-05-14T04:37:56;3.23;;;2.70;;
26211;SDS011;13951;49.516;6.094;2023-05-14T04:40:29;3.83;;;3.17;;
26211;SDS011;13951;49.516;6.094;2023-05-14T04:43:03;3.45;;;2.97;;
26211;SDS011;13951;49.516;6.094;2023-05-14T04:45:36;3.73;;;3.13;;
26211;SDS011;13951;49.516;6.094;2023-05-14T04:48:09;4.93;;;2.67;;
26211;SDS011;13951;49.516;6.094;2023-05-14T04:50:42;2.90;;;2.40;;
26211;SDS011;13951;49.516;6.094;2023-05-14T04:53:15;3.37;;;2.60;;
26211;SDS011;13951;49.516;6.094;2023-05-14T04:55:48;3.93;;;3.00;;
26211;SDS011;13951;49.516;6.094;2023-05-14T04:58:21;2.73;;;2.53;;
26211;SDS011;13951;49.516;6.094;2023-05-14T05:00:55;2.80;;;2.50;;
26211;SDS011;13951;49.516;6.094;2023-05-14T05:03:28;3.43;;;2.87;;
26211;SDS011;13951;49.516;6.094;2023-05-14T05:06:01;3.60;;;3.00;;
26211;SDS011;13951;49.516;6.094;2023-05-14T05:08:33;4.10;;;2.80;;
26211;SDS011;13951;49.516;6.094;2023-05-14T05:11:07;3.57;;;2.73;;
26211;SDS011;13951;49.516;6.094;2023-05-14T05:13:40;4.53;;;2.60;;
26211;SDS011;13951;49.516;6.094;2023-05-14T05:16:13;4.13;;;2.83;;
26211;SDS011;13951;49.516;6.094;2023-05-14T05:18:46;3.23;;;2.77;;
26211;SDS011;13951;49.516;6.094;2023-05-14T05:21:18;3.77;;;3.17;;
26211;SDS011;13951;49.516;6.094;2023-05-14T05:23:51;3.63;;;3.07;;
26211;SDS011;13951;49.516;6.094;2023-05-14T05:26:26;3.80;;;3.30;;
26211;SDS011;13951;49.516;6.094;2023-05-14T05:28:59;5.20;;;3.97;;
26211;SDS011;13951;49.516;6.094;2023-05-14T05:31:32;4.50;;;3.37;;
26211;SDS011;13951;49.516;6.094;2023-05-14T05:34:05;4.72;;;4.30;;
26211;SDS011;13951;49.516;6.094;2023-05-14T05:36:38;4.80;;;3.63;;
26211;SDS011;13951;49.516;6.094;2023-05-14T05:39:11;4.17;;;3.50;;
26211;SDS011;13951;49.516;6.094;2023-05-14T05:41:44;5.70;;;3.80;;
26211;SDS011;13951;49.516;6.094;2023-05-14T05:44:17;5.43;;;4.00;;
26211;SDS011;13951;49.516;6.094;2023-05-14T05:46:50;4.30;;;3.03;;
26211;SDS011;13951;49.516;6.094;2023-05-14T05:49:24;3.73;;;3.33;;
26211;SDS011;13951;49.516;6.094;2023-05-14T05:51:57;4.63;;;3.60;;
26211;SDS011;13951;49.516;6.094;2023-05-14T05:54:30;5.17;;;3.63;;
26211;SDS011;13951;49.516;6.094;2023-05-14T05:57:06;3.97;;;3.27;;
26211;SDS011;13951;49.516;6.094;2023-05-14T05:59:39;3.40;;;3.10;;
26211;SDS011;13951;49.516;6.094;2023-05-14T06:02:12;3.37;;;3.03;;
26211;SDS011;13951;49.516;6.094;2023-05-14T06:04:44;3.67;;;2.73;;
26211;SDS011;13951;49.516;6.094;2023-05-14T06:07:18;3.77;;;3.10;;
26211;SDS011;13951;49.516;6.094;2023-05-14T06:09:51;4.50;;;3.47;;
26211;SDS011;13951;49.516;6.094;2023-05-14T06:12:23;4.63;;;3.30;;
26211;SDS011;13951;49.516;6.094;2023-05-14T06:14:57;3.57;;;3.13;;
26211;SDS011;13951;49.516;6.094;2023-05-14T06:17:29;4.00;;;3.33;;
26211;SDS011;13951;49.516;6.094;2023-05-14T06:20:03;3.70;;;3.10;;
26211;SDS011;13951;49.516;6.094;2023-05-14T06:22:37;6.10;;;2.63;;
26211;SDS011;13951;49.516;6.094;2023-05-14T06:25:10;3.87;;;3.57;;
26211;SDS011;13951;49.516;6.094;2023-05-14T06:27:43;4.10;;;3.23;;
26211;SDS011;13951;49.516;6.094;2023-05-14T06:30:15;5.43;;;2.80;;
26211;SDS011;13951;49.516;6.094;2023-05-14T06:32:48;3.50;;;3.03;;
26211;SDS011;13951;49.516;6.094;2023-05-14T06:35:22;4.38;;;3.53;;
26211;SDS011;13951;49.516;6.094;2023-05-14T06:39:28;4.68;;;3.42;;
26211;SDS011;13951;49.516;6.094;2023-05-14T06:42:01;4.72;;;3.20;;
26211;SDS011;13951;49.516;6.094;2023-05-14T06:44:35;3.22;;;2.92;;
26211;SDS011;13951;49.516;6.094;2023-05-14T06:47:08;4.57;;;3.22;;
26211;SDS011;13951;49.516;6.094;2023-05-14T06:49:41;4.07;;;3.10;;
26211;SDS011;13951;49.516;6.094;2023-05-14T06:52:14;3.33;;;2.75;;
26211;SDS011;13951;49.516;6.094;2023-05-14T06:54:46;3.15;;;2.85;;
26211;SDS011;13951;49.516;6.094;2023-05-14T06:57:19;3.92;;;2.95;;
26211;SDS011;13951;49.516;6.094;2023-05-14T06:59:52;2.92;;;2.72;;
26211;SDS011;13951;49.516;6.094;2023-05-14T07:02:25;2.65;;;2.45;;
26211;SDS011;13951;49.516;6.094;2023-05-14T07:04:58;3.58;;;3.03;;
26211;SDS011;13951;49.516;6.094;2023-05-14T07:07:32;2.90;;;2.60;;
26211;SDS011;13951;49.516;6.094;2023-05-14T07:10:05;2.72;;;2.53;;
26211;SDS011;13951;49.516;6.094;2023-05-14T07:12:40;3.45;;;2.45;;
26211;SDS011;13951;49.516;6.094;2023-05-14T07:15:13;3.03;;;2.72;;
26211;SDS011;13951;49.516;6.094;2023-05-14T07:17:47;2.95;;;2.65;;
26211;SDS011;13951;49.516;6.094;2023-05-14T07:20:20;4.10;;;2.40;;
26211;SDS011;13951;49.516;6.094;2023-05-14T07:22:55;2.85;;;2.47;;
26211;SDS011;13951;49.516;6.094;2023-05-14T07:25:29;3.30;;;3.00;;
26211;SDS011;13951;49.516;6.094;2023-05-14T07:28:04;3.97;;;2.80;;
26211;SDS011;13951;49.516;6.094;2023-05-14T07:30:37;3.03;;;2.78;;
26211;SDS011;13951;49.516;6.094;2023-05-14T07:33:10;3.40;;;2.80;;
26211;SDS011;13951;49.516;6.094;2023-05-14T07:35:43;3.55;;;2.63;;
26211;SDS011;13951;49.516;6.094;2023-05-14T07:38:16;3.00;;;2.70;;
26211;SDS011;13951;49.516;6.094;2023-05-14T07:40:50;3.65;;;3.00;;
26211;SDS011;13951;49.516;6.094;2023-05-14T07:43:23;3.05;;;2.75;;
26211;SDS011;13951;49.516;6.094;2023-05-14T07:45:56;3.85;;;3.25;;
26211;SDS011;13951;49.516;6.094;2023-05-14T07:48:28;4.00;;;2.83;;
26211;SDS011;13951;49.516;6.094;2023-05-14T07:51:02;2.95;;;2.67;;
26211;SDS011;13951;49.516;6.094;2023-05-14T07:53:35;4.35;;;3.50;;
26211;SDS011;13951;49.516;6.094;2023-05-14T07:56:08;3.80;;;3.38;;
26211;SDS011;13951;49.516;6.094;2023-05-14T07:58:43;2.90;;;2.67;;
26211;SDS011;13951;49.516;6.094;2023-05-14T08:01:16;3.95;;;3.08;;
26211;SDS011;13951;49.516;6.094;2023-05-14T08:03:49;3.38;;;2.40;;
26211;SDS011;13951;49.516;6.094;2023-05-14T08:06:23;3.17;;;2.80;;
26211;SDS011;13951;49.516;6.094;2023-05-14T08:08:58;3.67;;;3.10;;
26211;SDS011;13951;49.516;6.094;2023-05-14T08:11:32;3.42;;;2.97;;
26211;SDS011;13951;49.516;6.094;2023-05-14T08:14:05;3.38;;;3.05;;
26211;SDS011;13951;49.516;6.094;2023-05-14T08:16:37;4.50;;;2.53;;
26211;SDS011;13951;49.516;6.094;2023-05-14T08:19:11;4.60;;;3.22;;
26211;SDS011;13951;49.516;6.094;2023-05-14T08:21:46;4.68;;;2.78;;
26211;SDS011;13951;49.516;6.094;2023-05-14T08:24:19;5.45;;;2.63;;
26211;SDS011;13951;49.516;6.094;2023-05-14T08:26:51;3.00;;;2.70;;
26211;SDS011;13951;49.516;6.094;2023-05-14T08:29:26;3.67;;;3.08;;
26211;SDS011;13951;49.516;6.094;2023-05-14T08:31:59;3.50;;;2.92;;
26211;SDS011;13951;49.516;6.094;2023-05-14T08:34:43;3.72;;;3.17;;
26211;SDS011;13951;49.516;6.094;2023-05-14T08:37:16;3.45;;;2.80;;
26211;SDS011;13951;49.516;6.094;2023-05-14T08:39:48;3.05;;;2.75;;
26211;SDS011;13951;49.516;6.094;2023-05-14T08:42:22;2.97;;;2.50;;
26211;SDS011;13951;49.516;6.094;2023-05-14T08:44:58;2.72;;;2.53;;
26211;SDS011;13951;49.516;6.094;2023-05-14T08:47:35;2.63;;;2.33;;
26211;SDS011;13951;49.516;6.094;2023-05-14T08:50:09;2.88;;;2.22;;
26211;SDS011;13951;49.516;6.094;2023-05-14T08:52:42;5.03;;;2.60;;
26211;SDS011;13951;49.516;6.094;2023-05-14T08:55:15;2.45;;;2.25;;
26211;SDS011;13951;49.516;6.094;2023-05-14T08:57:49;2.67;;;2.17;;
26211;SDS011;13951;49.516;6.094;2023-05-14T09:00:22;2.90;;;2.38;;
26211;SDS011;13951;49.516;6.094;2023-05-14T09:02:56;3.03;;;2.33;;
26211;SDS011;13951;49.516;6.094;2023-05-14T09:05:31;3.13;;;1.98;;
26211;SDS011;13951;49.516;6.094;2023-05-14T09:08:04;2.30;;;2.08;;
26211;SDS011;13951;49.516;6.094;2023-05-14T09:10:37;3.08;;;2.35;;
26211;SDS011;13951;49.516;6.094;2023-05-14T09:13:11;2.35;;;1.98;;
26211;SDS011;13951;49.516;6.094;2023-05-14T09:15:44;4.70;;;2.05;;
26211;SDS011;13951;49.516;6.094;2023-05-14T09:18:19;2.88;;;2.30;;
26211;SDS011;13951;49.516;6.094;2023-05-14T09:20:52;3.75;;;2.13;;
26211;SDS011;13951;49.516;6.094;2023-05-14T09:23:28;2.42;;;2.22;;
26211;SDS011;13951;49.516;6.094;2023-05-14T09:26:05;2.65;;;1.90;;
26211;SDS011;13951;49.516;6.094;2023-05-14T09:28:40;3.08;;;2.05;;
26211;SDS011;13951;49.516;6.094;2023-05-14T09:31:15;2.83;;;2.22;;
26211;SDS011;13951;49.516;6.094;2023-05-14T09:33:51;3.92;;;2.45;;
26211;SDS011;13951;49.516;6.094;2023-05-14T09:36:24;2.40;;;2.20;;
26211;SDS011;13951;49.516;6.094;2023-05-14T09:39:04;3.13;;;2.30;;
26211;SDS011;13951;49.516;6.094;2023-05-14T09:41:37;2.13;;;1.92;;
26211;SDS011;13951;49.516;6.094;2023-05-14T09:44:10;2.58;;;2.03;;
26211;SDS011;13951;49.516;6.094;2023-05-14T09:46:43;2.63;;;2.40;;
26211;SDS011;13951;49.516;6.094;2023-05-14T09:49:17;4.03;;;2.40;;
26211;SDS011;13951;49.516;6.094;2023-05-14T09:51:50;2.65;;;2.25;;
26211;SDS011;13951;49.516;6.094;2023-05-14T09:54:24;3.78;;;2.47;;
26211;SDS011;13951;49.516;6.094;2023-05-14T09:56:58;1.73;;;1.63;;
26211;SDS011;13951;49.516;6.094;2023-05-14T09:59:30;2.60;;;2.00;;
26211;SDS011;13951;49.516;6.094;2023-05-14T10:02:03;2.15;;;1.63;;
26211;SDS011;13951;49.516;6.094;2023-05-14T10:04:38;2.70;;;2.00;;
26211;SDS011;13951;49.516;6.094;2023-05-14T10:07:11;2.00;;;1.80;;
26211;SDS011;13951;49.516;6.094;2023-05-14T10:09:44;3.47;;;1.90;;
26211;SDS011;13951;49.516;6.094;2023-05-14T10:12:18;4.32;;;1.80;;
26211;SDS011;13951;49.516;6.094;2023-05-14T10:14:53;1.75;;;1.50;;
26211;SDS011;13951;49.516;6.094;2023-05-14T10:17:33;2.60;;;1.50;;
26211;SDS011;13951;49.516;6.094;2023-05-14T10:20:09;1.83;;;1.73;;
26211;SDS011;13951;49.516;6.094;2023-05-14T10:22:46;1.75;;;1.65;;
26211;SDS011;13951;49.516;6.094;2023-05-14T10:25:19;3.75;;;2.30;;
26211;SDS011;13951;49.516;6.094;2023-05-14T10:27:52;2.75;;;1.80;;
26211;SDS011;13951;49.516;6.094;2023-05-14T10:30:26;2.35;;;1.90;;
26211;SDS011;13951;49.516;6.094;2023-05-14T10:33:06;2.17;;;1.60;;
26211;SDS011;13951;49.516;6.094;2023-05-14T10:35:51;2.88;;;2.42;;
26211;SDS011;13951;49.516;6.094;2023-05-14T10:38:34;3.08;;;2.10;;
26211;SDS011;13951;49.516;6.094;2023-05-14T10:41:12;1.92;;;1.73;;
26211;SDS011;13951;49.516;6.094;2023-05-14T10:43:48;2.92;;;2.08;;
26211;SDS011;13951;49.516;6.094;2023-05-14T10:46:22;2.30;;;2.10;;
26211;SDS011;13951;49.516;6.094;2023-05-14T10:48:55;4.15;;;2.65;;
26211;SDS011;13951;49.516;6.094;2023-05-14T10:51:28;2.80;;;2.05;;
26211;SDS011;13951;49.516;6.094;2023-05-14T10:54:02;2.20;;;1.90;;
26211;SDS011;13951;49.516;6.094;2023-05-14T10:56:35;4.88;;;2.88;;
26211;SDS011;13951;49.516;6.094;2023-05-14T10:59:08;5.68;;;2.30;;
26211;SDS011;13951;49.516;6.094;2023-05-14T11:01:42;2.47;;;2.10;;
26211;SDS011;13951;49.516;6.094;2023-05-14T11:04:17;2.25;;;2.05;;
26211;SDS011;13951;49.516;6.094;2023-05-14T11:06:54;2.78;;;2.05;;
26211;SDS011;13951;49.516;6.094;2023-05-14T11:09:28;2.00;;;1.70;;
26211;SDS011;13951;49.516;6.094;2023-05-14T11:12:01;2.20;;;2.00;;
26211;SDS011;13951;49.516;6.094;2023-05-14T11:14:34;2.20;;;1.83;;
26211;SDS011;13951;49.516;6.094;2023-05-14T11:17:07;2.33;;;1.88;;
26211;SDS011;13951;49.516;6.094;2023-05-14T11:19:41;2.78;;;1.88;;
26211;SDS011;13951;49.516;6.094;2023-05-14T11:22:16;2.50;;;2.22;;
26211;SDS011;13951;49.516;6.094;2023-05-14T11:24:49;2.20;;;2.00;;
26211;SDS011;13951;49.516;6.094;2023-05-14T11:27:22;2.38;;;2.05;;
26211;SDS011;13951;49.516;6.094;2023-05-14T11:29:57;3.05;;;2.20;;
26211;SDS011;13951;49.516;6.094;2023-05-14T11:32:32;1.98;;;1.77;;
26211;SDS011;13951;49.516;6.094;2023-05-14T11:35:06;2.17;;;1.98;;
26211;SDS011;13951;49.516;6.094;2023-05-14T11:37:39;2.10;;;1.90;;
26211;SDS011;13951;49.516;6.094;2023-05-14T11:40:13;1.85;;;1.75;;
26211;SDS011;13951;49.516;6.094;2023-05-14T11:42:51;2.15;;;1.90;;
26211;SDS011;13951;49.516;6.094;2023-05-14T11:45:25;1.98;;;1.77;;
26211;SDS011;13951;49.516;6.094;2023-05-14T11:47:58;2.70;;;2.30;;
26211;SDS011;13951;49.516;6.094;2023-05-14T11:50:34;2.20;;;2.00;;
26211;SDS011;13951;49.516;6.094;2023-05-14T11:53:07;2.00;;;1.75;;
26211;SDS011;13951;49.516;6.094;2023-05-14T11:55:40;2.03;;;1.80;;
26211;SDS011;13951;49.516;6.094;2023-05-14T11:58:14;2.40;;;1.90;;
26211;SDS011;13951;49.516;6.094;2023-05-14T12:00:50;2.08;;;1.90;;
26211;SDS011;13951;49.516;6.094;2023-05-14T12:03:26;2.40;;;1.95;;
26211;SDS011;13951;49.516;6.094;2023-05-14T12:06:02;2.13;;;1.92;;
26211;SDS011;13951;49.516;6.094;2023-05-14T12:08:39;2.83;;;1.77;;
26211;SDS011;13951;49.516;6.094;2023-05-14T12:11:12;3.65;;;2.13;;
26211;SDS011;13951;49.516;6.094;2023-05-14T12:13:45;2.00;;;1.80;;
26211;SDS011;13951;49.516;6.094;2023-05-14T12:16:19;2.50;;;2.10;;
26211;SDS011;13951;49.516;6.094;2023-05-14T12:18:53;2.40;;;2.20;;
26211;SDS011;13951;49.516;6.094;2023-05-14T12:21:26;2.25;;;2.00;;
26211;SDS011;13951;49.516;6.094;2023-05-14T12:24:00;2.33;;;1.90;;
26211;SDS011;13951;49.516;6.094;2023-05-14T12:26:33;2.17;;;1.98;;
26211;SDS011;13951;49.516;6.094;2023-05-14T12:29:06;2.17;;;1.97;;
26211;SDS011;13951;49.516;6.094;2023-05-14T12:31:46;3.03;;;2.30;;
26211;SDS011;13951;49.516;6.094;2023-05-14T12:34:20;2.38;;;2.17;;
26211;SDS011;13951;49.516;6.094;2023-05-14T12:36:53;2.30;;;1.77;;
26211;SDS011;13951;49.516;6.094;2023-05-14T12:39:26;2.20;;;1.80;;
26211;SDS011;13951;49.516;6.094;2023-05-14T12:41:59;2.08;;;1.88;;
26211;SDS011;13951;49.516;6.094;2023-05-14T12:44:32;1.75;;;1.65;;
26211;SDS011;13951;49.516;6.094;2023-05-14T12:47:05;2.55;;;2.03;;
26211;SDS011;13951;49.516;6.094;2023-05-14T12:49:38;3.80;;;1.95;;
26211;SDS011;13951;49.516;6.094;2023-05-14T12:52:11;2.13;;;1.85;;
26211;SDS011;13951;49.516;6.094;2023-05-14T12:54:47;3.25;;;2.10;;
26211;SDS011;13951;49.516;6.094;2023-05-14T12:57:20;2.13;;;1.92;;
26211;SDS011;13951;49.516;6.094;2023-05-14T12:59:53;4.65;;;2.70;;
26211;SDS011;13951;49.516;6.094;2023-05-14T13:02:26;4.32;;;2.60;;
26211;SDS011;13951;49.516;6.094;2023-05-14T13:04:59;2.58;;;2.33;;
26211;SDS011;13951;49.516;6.094;2023-05-14T13:07:34;2.97;;;2.67;;
26211;SDS011;13951;49.516;6.094;2023-05-14T13:10:07;4.15;;;2.50;;
26211;SDS011;13951;49.516;6.094;2023-05-14T13:12:41;3.10;;;2.60;;
26211;SDS011;13951;49.516;6.094;2023-05-14T13:15:14;3.28;;;2.78;;
26211;SDS011;13951;49.516;6.094;2023-05-14T13:17:47;3.25;;;2.75;;
26211;SDS011;13951;49.516;6.094;2023-05-14T13:20:20;4.00;;;2.92;;
26211;SDS011;13951;49.516;6.094;2023-05-14T13:22:54;3.03;;;2.80;;
26211;SDS011;13951;49.516;6.094;2023-05-14T13:25:28;3.67;;;3.05;;
26211;SDS011;13951;49.516;6.094;2023-05-14T13:28:01;3.08;;;2.83;;
26211;SDS011;13951;49.516;6.094;2023-05-14T13:30:34;3.70;;;2.67;;
26211;SDS011;13951;49.516;6.094;2023-05-14T13:33:06;3.15;;;2.75;;
26211;SDS011;13951;49.516;6.094;2023-05-14T13:35:40;3.05;;;2.65;;
26211;SDS011;13951;49.516;6.094;2023-05-14T13:38:13;5.07;;;3.28;;
26211;SDS011;13951;49.516;6.094;2023-05-14T13:40:45;3.53;;;3.10;;
26211;SDS011;13951;49.516;6.094;2023-05-14T13:43:18;4.00;;;3.30;;
26211;SDS011;13951;49.516;6.094;2023-05-14T13:45:51;3.28;;;2.80;;
26211;SDS011;13951;49.516;6.094;2023-05-14T13:48:24;3.10;;;2.80;;
26211;SDS011;13951;49.516;6.094;2023-05-14T13:50:58;4.70;;;3.17;;
26211;SDS011;13951;49.516;6.094;2023-05-14T13:53:32;5.78;;;4.03;;
26211;SDS011;13951;49.516;6.094;2023-05-14T13:56:05;4.22;;;3.80;;
26211;SDS011;13951;49.516;6.094;2023-05-14T13:58:39;4.28;;;3.60;;
26211;SDS011;13951;49.516;6.094;2023-05-14T14:01:12;5.00;;;3.85;;
26211;SDS011;13951;49.516;6.094;2023-05-14T14:03:45;5.40;;;3.88;;
26211;SDS011;13951;49.516;6.094;2023-05-14T14:06:18;4.30;;;3.72;;
26211;SDS011;13951;49.516;6.094;2023-05-14T14:08:51;4.32;;;3.50;;
26211;SDS011;13951;49.516;6.094;2023-05-14T14:11:24;5.35;;;3.90;;
26211;SDS011;13951;49.516;6.094;2023-05-14T14:13:57;3.70;;;3.35;;
26211;SDS011;13951;49.516;6.094;2023-05-14T14:16:30;4.85;;;3.72;;
26211;SDS011;13951;49.516;6.094;2023-05-14T14:19:03;9.43;;;7.03;;
26211;SDS011;13951;49.516;6.094;2023-05-14T14:21:36;8.88;;;5.30;;
26211;SDS011;13951;49.516;6.094;2023-05-14T14:24:14;10.95;;;6.95;;
26211;SDS011;13951;49.516;6.094;2023-05-14T14:26:47;10.02;;;5.90;;
26211;SDS011;13951;49.516;6.094;2023-05-14T14:29:20;7.47;;;5.30;;
26211;SDS011;13951;49.516;6.094;2023-05-14T14:31:55;9.30;;;5.38;;
26211;SDS011;13951;49.516;6.094;2023-05-14T14:34:28;4.35;;;3.53;;
26211;SDS011;13951;49.516;6.094;2023-05-14T14:37:02;12.38;;;8.68;;
26211;SDS011;13951;49.516;6.094;2023-05-14T14:39:35;5.75;;;4.57;;
26211;SDS011;13951;49.516;6.094;2023-05-14T14:42:08;4.05;;;3.20;;
26211;SDS011;13951;49.516;6.094;2023-05-14T14:44:41;5.38;;;3.90;;
26211;SDS011;13951;49.516;6.094;2023-05-14T14:47:14;3.70;;;2.58;;
26211;SDS011;13951;49.516;6.094;2023-05-14T14:49:49;3.20;;;2.75;;
26211;SDS011;13951;49.516;6.094;2023-05-14T14:52:23;3.30;;;2.92;;
26211;SDS011;13951;49.516;6.094;2023-05-14T14:54:56;3.08;;;2.78;;
26211;SDS011;13951;49.516;6.094;2023-05-14T14:57:31;4.13;;;3.30;;
26211;SDS011;13951;49.516;6.094;2023-05-14T15:00:04;4.43;;;3.53;;
26211;SDS011;13951;49.516;6.094;2023-05-14T15:02:38;4.07;;;3.67;;
26211;SDS011;13951;49.516;6.094;2023-05-14T15:05:13;6.47;;;4.20;;
26211;SDS011;13951;49.516;6.094;2023-05-14T15:07:46;12.75;;;8.35;;
26211;SDS011;13951;49.516;6.094;2023-05-14T15:10:19;14.23;;;9.48;;
26211;SDS011;13951;49.516;6.094;2023-05-14T15:12:52;5.72;;;4.22;;
26211;SDS011;13951;49.516;6.094;2023-05-14T15:15:26;7.07;;;5.47;;
26211;SDS011;13951;49.516;6.094;2023-05-14T15:17:59;21.92;;;10.88;;
26211;SDS011;13951;49.516;6.094;2023-05-14T15:20:36;34.50;;;15.82;;
26211;SDS011;13951;49.516;6.094;2023-05-14T15:23:08;26.23;;;13.77;;
26211;SDS011;13951;49.516;6.094;2023-05-14T15:25:43;10.57;;;7.03;;
26211;SDS011;13951;49.516;6.094;2023-05-14T15:28:16;4.97;;;3.67;;
26211;SDS011;13951;49.516;6.094;2023-05-14T15:30:49;6.93;;;5.47;;
26211;SDS011;13951;49.516;6.094;2023-05-14T15:33:21;7.93;;;4.00;;
26211;SDS011;13951;49.516;6.094;2023-05-14T15:35:54;3.63;;;3.25;;
26211;SDS011;13951;49.516;6.094;2023-05-14T15:38:27;4.03;;;2.97;;